sensor_id;sensor_type;location;lat;lon;timestamp;temperature;humidity
15916;DHT22;8057;47.830;-3.870;2023-05-29T00:01:30;15.80;99.90
15916;DHT22;8057;47.830;-3.870;2023-05-29T00:05:39;15.80;99.90
15916;DHT22;8057;47.830;-3.870;2023-05-29T00:09:48;15.80;99.90
15916;DHT22;8057;47.830;-3.870;2023-05-29T00:13:57;15.70;99.90
15916;DHT22;8057;47.830;-3.870;2023-05-29T00:18:08;15.70;99.90
15916;DHT22;8057;47.830;-3.870;2023-05-29T00:22:17;15.70;99.90
15916;DHT22;8057;47.830;-3.870;2023-05-29T00:26:26;15.60;99.90
15916;DHT22;8057;47.830;-3.870;2023-05-29T00:30:35;15.60;99.90
15916;DHT22;8057;47.830;-3.870;2023-05-29T00:34:46;15.60;99.90
15916;DHT22;8057;47.830;-3.870;2023-05-29T00:38:55;15.60;99.90
15916;DHT22;8057;47.830;-3.870;2023-05-29T00:43:04;15.50;99.90
15916;DHT22;8057;47.830;-3.870;2023-05-29T00:47:14;15.50;99.90
15916;DHT22;8057;47.830;-3.870;2023-05-29T00:51:26;15.50;99.90
15916;DHT22;8057;47.830;-3.870;2023-05-29T00:55:36;15.40;99.90
15916;DHT22;8057;47.830;-3.870;2023-05-29T00:59:46;15.30;99.90
15916;DHT22;8057;47.830;-3.870;2023-05-29T01:03:56;15.30;99.90
15916;DHT22;8057;47.830;-3.870;2023-05-29T01:08:08;15.30;99.90
15916;DHT22;8057;47.830;-3.870;2023-05-29T01:12:27;15.20;99.90
15916;DHT22;8057;47.830;-3.870;2023-05-29T01:16:48;15.20;99.90
15916;DHT22;8057;47.830;-3.870;2023-05-29T01:21:06;15.20;99.90
15916;DHT22;8057;47.830;-3.870;2023-05-29T01:25:23;15.10;99.90
15916;DHT22;8057;47.830;-3.870;2023-05-29T01:29:35;15.10;99.90
15916;DHT22;8057;47.830;-3.870;2023-05-29T01:33:52;15.10;99.90
15916;DHT22;8057;47.830;-3.870;2023-05-29T01:38:01;15.10;99.90
15916;DHT22;8057;47.830;-3.870;2023-05-29T01:42:11;15.00;99.90
15916;DHT22;8057;47.830;-3.870;2023-05-29T01:46:22;15.00;99.90
15916;DHT22;8057;47.830;-3.870;2023-05-29T01:50:33;14.90;99.90
15916;DHT22;8057;47.830;-3.870;2023-05-29T01:54:43;14.90;99.90
15916;DHT22;8057;47.830;-3.870;2023-05-29T01:58:53;14.80;99.90
15916;DHT22;8057;47.830;-3.870;2023-05-29T02:03:04;14.80;99.90
15916;DHT22;8057;47.830;-3.870;2023-05-29T02:07:13;14.90;99.90
15916;DHT22;8057;47.830;-3.870;2023-05-29T02:11:23;14.80;99.90
15916;DHT22;8057;47.830;-3.870;2023-05-29T02:15:33;14.80;99.90
15916;DHT22;8057;47.830;-3.870;2023-05-29T02:19:44;14.80;99.90
15916;DHT22;8057;47.830;-3.870;2023-05-29T02:23:53;14.80;99.90
15916;DHT22;8057;47.830;-3.870;2023-05-29T02:28:03;14.70;99.90
15916;DHT22;8057;47.830;-3.870;2023-05-29T02:32:12;14.70;99.90
15916;DHT22;8057;47.830;-3.870;2023-05-29T02:36:22;14.70;99.90
15916;DHT22;8057;47.830;-3.870;2023-05-29T02:40:32;14.60;99.90
15916;DHT22;8057;47.830;-3.870;2023-05-29T02:44:41;14.60;99.90
15916;DHT22;8057;47.830;-3.870;2023-05-29T02:48:50;14.60;99.90
15916;DHT22;8057;47.830;-3.870;2023-05-29T02:53:00;14.60;99.90
15916;DHT22;8057;47.830;-3.870;2023-05-29T02:57:09;14.60;99.90
15916;DHT22;8057;47.830;-3.870;2023-05-29T03:01:19;14.60;99.90
15916;DHT22;8057;47.830;-3.870;2023-05-29T03:05:28;14.60;99.90
15916;DHT22;8057;47.830;-3.870;2023-05-29T03:09:39;14.60;99.90
15916;DHT22;8057;47.830;-3.870;2023-05-29T03:13:48;14.60;99.90
15916;DHT22;8057;47.830;-3.870;2023-05-29T03:17:57;14.60;99.90
15916;DHT22;8057;47.830;-3.870;2023-05-29T03:22:06;14.60;99.90
15916;DHT22;8057;47.830;-3.870;2023-05-29T03:26:17;14.60;99.90
15916;DHT22;8057;47.830;-3.870;2023-05-29T03:30:26;14.60;99.90
15916;DHT22;8057;47.830;-3.870;2023-05-29T03:34:35;14.60;99.90
15916;DHT22;8057;47.830;-3.870;2023-05-29T03:38:44;14.60;99.90
15916;DHT22;8057;47.830;-3.870;2023-05-29T03:42:55;14.60;99.90
15916;DHT22;8057;47.830;-3.870;2023-05-29T03:47:04;14.50;99.90
15916;DHT22;8057;47.830;-3.870;2023-05-29T03:51:13;14.50;99.90
15916;DHT22;8057;47.830;-3.870;2023-05-29T03:55:22;14.50;99.90
15916;DHT22;8057;47.830;-3.870;2023-05-29T03:59:33;14.50;99.90
15916;DHT22;8057;47.830;-3.870;2023-05-29T04:03:43;14.50;99.90
15916;DHT22;8057;47.830;-3.870;2023-05-29T04:07:52;14.50;99.90
15916;DHT22;8057;47.830;-3.870;2023-05-29T04:12:13;14.50;99.90
15916;DHT22;8057;47.830;-3.870;2023-05-29T04:16:25;14.50;99.90
15916;DHT22;8057;47.830;-3.870;2023-05-29T04:20:34;14.50;99.90
15916;DHT22;8057;47.830;-3.870;2023-05-29T04:24:43;14.40;99.90
15916;DHT22;8057;47.830;-3.870;2023-05-29T04:28:53;14.30;99.90
15916;DHT22;8057;47.830;-3.870;2023-05-29T04:33:06;14.20;99.90
15916;DHT22;8057;47.830;-3.870;2023-05-29T04:37:17;14.20;99.90
15916;DHT22;8057;47.830;-3.870;2023-05-29T04:41:26;14.10;99.90
15916;DHT22;8057;47.830;-3.870;2023-05-29T04:45:38;14.10;99.90
15916;DHT22;8057;47.830;-3.870;2023-05-29T04:49:50;14.00;99.90
15916;DHT22;8057;47.830;-3.870;2023-05-29T04:53:59;14.00;99.90
15916;DHT22;8057;47.830;-3.870;2023-05-29T04:58:08;14.00;99.90
15916;DHT22;8057;47.830;-3.870;2023-05-29T05:02:19;14.00;99.90
15916;DHT22;8057;47.830;-3.870;2023-05-29T05:06:30;14.00;99.90
15916;DHT22;8057;47.830;-3.870;2023-05-29T05:10:39;14.00;99.90
15916;DHT22;8057;47.830;-3.870;2023-05-29T05:14:48;14.00;99.90
15916;DHT22;8057;47.830;-3.870;2023-05-29T05:18:57;14.00;99.90
15916;DHT22;8057;47.830;-3.870;2023-05-29T05:23:08;14.10;99.90
15916;DHT22;8057;47.830;-3.870;2023-05-29T05:27:18;14.10;99.90
15916;DHT22;8057;47.830;-3.870;2023-05-29T05:31:27;14.20;99.90
15916;DHT22;8057;47.830;-3.870;2023-05-29T05:35:36;14.20;99.90
15916;DHT22;8057;47.830;-3.870;2023-05-29T05:39:47;14.30;99.90
15916;DHT22;8057;47.830;-3.870;2023-05-29T05:43:56;14.30;99.90
15916;DHT22;8057;47.830;-3.870;2023-05-29T05:48:05;14.40;99.90
15916;DHT22;8057;47.830;-3.870;2023-05-29T05:52:14;14.50;99.90
15916;DHT22;8057;47.830;-3.870;2023-05-29T05:56:25;14.60;99.90
15916;DHT22;8057;47.830;-3.870;2023-05-29T06:00:34;14.60;99.90
15916;DHT22;8057;47.830;-3.870;2023-05-29T06:04:43;14.70;99.90
15916;DHT22;8057;47.830;-3.870;2023-05-29T06:08:53;14.80;99.90
15916;DHT22;8057;47.830;-3.870;2023-05-29T06:13:05;14.90;99.90
15916;DHT22;8057;47.830;-3.870;2023-05-29T06:17:14;14.90;99.90
15916;DHT22;8057;47.830;-3.870;2023-05-29T06:21:23;15.00;99.90
15916;DHT22;8057;47.830;-3.870;2023-05-29T06:25:32;15.10;99.90
15916;DHT22;8057;47.830;-3.870;2023-05-29T06:29:43;15.20;99.90
15916;DHT22;8057;47.830;-3.870;2023-05-29T06:33:52;15.20;99.90
15916;DHT22;8057;47.830;-3.870;2023-05-29T06:38:02;15.30;99.90
15916;DHT22;8057;47.830;-3.870;2023-05-29T06:42:11;15.30;99.90
15916;DHT22;8057;47.830;-3.870;2023-05-29T06:46:21;15.40;99.90
15916;DHT22;8057;47.830;-3.870;2023-05-29T06:50:30;15.50;99.90
15916;DHT22;8057;47.830;-3.870;2023-05-29T06:54:41;15.40;99.90
15916;DHT22;8057;47.830;-3.870;2023-05-29T06:58:50;15.50;99.90
15916;DHT22;8057;47.830;-3.870;2023-05-29T07:03:01;15.60;99.90
15916;DHT22;8057;47.830;-3.870;2023-05-29T07:07:10;15.60;99.90
15916;DHT22;8057;47.830;-3.870;2023-05-29T07:11:19;15.80;99.90
15916;DHT22;8057;47.830;-3.870;2023-05-29T07:15:28;15.90;99.90
15916;DHT22;8057;47.830;-3.870;2023-05-29T07:19:39;16.00;99.90
15916;DHT22;8057;47.830;-3.870;2023-05-29T07:23:48;16.10;99.90
15916;DHT22;8057;47.830;-3.870;2023-05-29T07:27:57;16.20;99.90
15916;DHT22;8057;47.830;-3.870;2023-05-29T07:32:37;16.40;99.90
15916;DHT22;8057;47.830;-3.870;2023-05-29T07:37:17;16.50;99.90
15916;DHT22;8057;47.830;-3.870;2023-05-29T07:41:27;16.60;99.90
15916;DHT22;8057;47.830;-3.870;2023-05-29T07:45:36;16.80;99.90
15916;DHT22;8057;47.830;-3.870;2023-05-29T07:49:45;16.80;99.90
15916;DHT22;8057;47.830;-3.870;2023-05-29T07:53:56;17.00;99.90
15916;DHT22;8057;47.830;-3.870;2023-05-29T07:58:05;17.00;99.90
15916;DHT22;8057;47.830;-3.870;2023-05-29T08:02:20;17.00;99.90
15916;DHT22;8057;47.830;-3.870;2023-05-29T08:06:29;17.10;99.90
15916;DHT22;8057;47.830;-3.870;2023-05-29T08:10:41;17.20;99.90
15916;DHT22;8057;47.830;-3.870;2023-05-29T08:14:50;17.30;99.90
15916;DHT22;8057;47.830;-3.870;2023-05-29T08:19:00;17.50;99.90
15916;DHT22;8057;47.830;-3.870;2023-05-29T08:23:09;17.60;99.90
15916;DHT22;8057;47.830;-3.870;2023-05-29T08:27:20;17.80;99.90
15916;DHT22;8057;47.830;-3.870;2023-05-29T08:31:30;17.70;99.90
15916;DHT22;8057;47.830;-3.870;2023-05-29T08:35:39;17.60;99.90
15916;DHT22;8057;47.830;-3.870;2023-05-29T08:39:48;17.80;99.90
15916;DHT22;8057;47.830;-3.870;2023-05-29T08:44:00;17.80;99.90
15916;DHT22;8057;47.830;-3.870;2023-05-29T08:48:12;17.90;99.90
15916;DHT22;8057;47.830;-3.870;2023-05-29T08:52:23;18.30;99.90
15916;DHT22;8057;47.830;-3.870;2023-05-29T08:56:34;18.80;99.90
15916;DHT22;8057;47.830;-3.870;2023-05-29T09:00:46;18.80;99.90
15916;DHT22;8057;47.830;-3.870;2023-05-29T09:04:56;18.80;99.90
15916;DHT22;8057;47.830;-3.870;2023-05-29T09:09:06;18.90;99.90
15916;DHT22;8057;47.830;-3.870;2023-05-29T09:13:15;19.10;99.90
15916;DHT22;8057;47.830;-3.870;2023-05-29T09:17:30;19.40;99.90
15916;DHT22;8057;47.830;-3.870;2023-05-29T09:21:40;19.20;99.90
15916;DHT22;8057;47.830;-3.870;2023-05-29T09:25:52;18.90;99.90
15916;DHT22;8057;47.830;-3.870;2023-05-29T09:30:01;18.90;99.90
15916;DHT22;8057;47.830;-3.870;2023-05-29T09:34:12;19.10;99.90
15916;DHT22;8057;47.830;-3.870;2023-05-29T09:38:21;19.10;99.90
15916;DHT22;8057;47.830;-3.870;2023-05-29T09:42:50;18.90;99.90
15916;DHT22;8057;47.830;-3.870;2023-05-29T09:47:00;19.20;99.90
15916;DHT22;8057;47.830;-3.870;2023-05-29T09:51:19;19.40;99.90
15916;DHT22;8057;47.830;-3.870;2023-05-29T09:55:30;19.70;99.90
15916;DHT22;8057;47.830;-3.870;2023-05-29T09:59:41;19.80;99.90
15916;DHT22;8057;47.830;-3.870;2023-05-29T10:03:54;19.60;99.90
15916;DHT22;8057;47.830;-3.870;2023-05-29T10:08:05;19.60;99.90
15916;DHT22;8057;47.830;-3.870;2023-05-29T10:12:20;19.60;99.90
15916;DHT22;8057;47.830;-3.870;2023-05-29T10:16:29;19.60;99.90
15916;DHT22;8057;47.830;-3.870;2023-05-29T10:20:43;19.60;99.90
15916;DHT22;8057;47.830;-3.870;2023-05-29T10:24:56;19.60;99.90
15916;DHT22;8057;47.830;-3.870;2023-05-29T10:29:11;19.80;99.90
15916;DHT22;8057;47.830;-3.870;2023-05-29T10:33:37;20.00;99.90
15916;DHT22;8057;47.830;-3.870;2023-05-29T10:37:54;20.10;99.90
15916;DHT22;8057;47.830;-3.870;2023-05-29T10:42:40;20.10;99.90
15916;DHT22;8057;47.830;-3.870;2023-05-29T10:47:07;20.00;99.90
15916;DHT22;8057;47.830;-3.870;2023-05-29T10:51:26;20.40;99.90
15916;DHT22;8057;47.830;-3.870;2023-05-29T10:55:36;20.50;99.90
15916;DHT22;8057;47.830;-3.870;2023-05-29T10:59:47;20.50;99.90
15916;DHT22;8057;47.830;-3.870;2023-05-29T11:04:31;20.50;99.90
15916;DHT22;8057;47.830;-3.870;2023-05-29T11:08:43;20.50;99.90
15916;DHT22;8057;47.830;-3.870;2023-05-29T11:12:57;20.60;99.90
15916;DHT22;8057;47.830;-3.870;2023-05-29T11:17:09;20.60;99.90
15916;DHT22;8057;47.830;-3.870;2023-05-29T11:21:56;20.90;99.90
15916;DHT22;8057;47.830;-3.870;2023-05-29T11:26:08;21.40;99.90
15916;DHT22;8057;47.830;-3.870;2023-05-29T11:30:18;21.70;99.90
15916;DHT22;8057;47.830;-3.870;2023-05-29T11:34:40;21.90;99.90
15916;DHT22;8057;47.830;-3.870;2023-05-29T11:38:51;21.60;99.90
15916;DHT22;8057;47.830;-3.870;2023-05-29T11:43:00;21.80;99.90
15916;DHT22;8057;47.830;-3.870;2023-05-29T11:47:09;21.60;99.90
15916;DHT22;8057;47.830;-3.870;2023-05-29T11:51:21;21.70;99.90
15916;DHT22;8057;47.830;-3.870;2023-05-29T11:55:30;21.90;99.90
15916;DHT22;8057;47.830;-3.870;2023-05-29T11:59:39;21.90;99.90
15916;DHT22;8057;47.830;-3.870;2023-05-29T12:03:49;22.20;99.90
15916;DHT22;8057;47.830;-3.870;2023-05-29T12:07:59;22.00;99.90
15916;DHT22;8057;47.830;-3.870;2023-05-29T12:12:11;22.10;99.90
15916;DHT22;8057;47.830;-3.870;2023-05-29T12:16:21;22.10;99.90
15916;DHT22;8057;47.830;-3.870;2023-05-29T12:20:30;22.20;99.90
15916;DHT22;8057;47.830;-3.870;2023-05-29T12:24:41;22.30;99.90
15916;DHT22;8057;47.830;-3.870;2023-05-29T12:28:51;22.50;99.90
15916;DHT22;8057;47.830;-3.870;2023-05-29T12:33:33;22.90;99.90
15916;DHT22;8057;47.830;-3.870;2023-05-29T12:37:47;22.50;99.90
15916;DHT22;8057;47.830;-3.870;2023-05-29T12:41:58;22.60;99.90
15916;DHT22;8057;47.830;-3.870;2023-05-29T12:46:08;23.00;99.90
15916;DHT22;8057;47.830;-3.870;2023-05-29T12:50:22;22.90;99.90
15916;DHT22;8057;47.830;-3.870;2023-05-29T12:54:32;22.90;99.90
15916;DHT22;8057;47.830;-3.870;2023-05-29T12:58:43;22.90;99.90
15916;DHT22;8057;47.830;-3.870;2023-05-29T13:02:52;22.80;99.90
15916;DHT22;8057;47.830;-3.870;2023-05-29T13:07:01;23.00;99.90
15916;DHT22;8057;47.830;-3.870;2023-05-29T13:11:10;23.50;99.90
15916;DHT22;8057;47.830;-3.870;2023-05-29T13:15:22;23.20;99.90
15916;DHT22;8057;47.830;-3.870;2023-05-29T13:19:31;23.20;99.90
15916;DHT22;8057;47.830;-3.870;2023-05-29T13:23:40;23.00;99.90
15916;DHT22;8057;47.830;-3.870;2023-05-29T13:27:49;23.30;99.90
15916;DHT22;8057;47.830;-3.870;2023-05-29T13:32:00;23.40;99.90
15916;DHT22;8057;47.830;-3.870;2023-05-29T13:36:09;23.00;99.90
15916;DHT22;8057;47.830;-3.870;2023-05-29T13:40:18;22.90;99.90
15916;DHT22;8057;47.830;-3.870;2023-05-29T13:44:27;22.90;99.90
15916;DHT22;8057;47.830;-3.870;2023-05-29T13:48:38;23.40;99.90
15916;DHT22;8057;47.830;-3.870;2023-05-29T13:52:47;23.40;99.90
15916;DHT22;8057;47.830;-3.870;2023-05-29T13:56:56;23.50;99.90
15916;DHT22;8057;47.830;-3.870;2023-05-29T14:01:06;23.40;99.90
15916;DHT22;8057;47.830;-3.870;2023-05-29T14:05:16;23.60;99.90
15916;DHT22;8057;47.830;-3.870;2023-05-29T14:09:26;23.90;99.90
15916;DHT22;8057;47.830;-3.870;2023-05-29T14:13:37;23.80;99.90
15916;DHT22;8057;47.830;-3.870;2023-05-29T14:17:47;23.20;99.90
15916;DHT22;8057;47.830;-3.870;2023-05-29T14:21:57;23.10;99.90
15916;DHT22;8057;47.830;-3.870;2023-05-29T14:26:07;23.10;99.90
15916;DHT22;8057;47.830;-3.870;2023-05-29T14:30:16;23.30;99.90
15916;DHT22;8057;47.830;-3.870;2023-05-29T14:34:25;23.10;99.90
15916;DHT22;8057;47.830;-3.870;2023-05-29T14:38:35;23.00;99.90
15916;DHT22;8057;47.830;-3.870;2023-05-29T14:42:45;22.80;99.90
15916;DHT22;8057;47.830;-3.870;2023-05-29T14:46:56;23.10;99.90
15916;DHT22;8057;47.830;-3.870;2023-05-29T14:51:05;23.30;99.90
15916;DHT22;8057;47.830;-3.870;2023-05-29T14:55:17;23.40;99.90
15916;DHT22;8057;47.830;-3.870;2023-05-29T14:59:26;23.40;99.90
15916;DHT22;8057;47.830;-3.870;2023-05-29T15:03:35;23.10;99.90
15916;DHT22;8057;47.830;-3.870;2023-05-29T15:07:44;22.80;99.90
15916;DHT22;8057;47.830;-3.870;2023-05-29T15:11:54;22.80;99.90
15916;DHT22;8057;47.830;-3.870;2023-05-29T15:16:04;22.90;99.90
15916;DHT22;8057;47.830;-3.870;2023-05-29T15:20:14;22.60;99.90
15916;DHT22;8057;47.830;-3.870;2023-05-29T15:24:25;22.30;99.90
15916;DHT22;8057;47.830;-3.870;2023-05-29T15:28:35;22.20;99.90
15916;DHT22;8057;47.830;-3.870;2023-05-29T15:32:45;22.20;99.90
15916;DHT22;8057;47.830;-3.870;2023-05-29T15:36:54;22.20;99.90
15916;DHT22;8057;47.830;-3.870;2023-05-29T15:41:03;21.90;99.90
15916;DHT22;8057;47.830;-3.870;2023-05-29T15:45:17;21.60;99.90
15916;DHT22;8057;47.830;-3.870;2023-05-29T15:49:27;21.60;99.90
15916;DHT22;8057;47.830;-3.870;2023-05-29T15:53:36;21.30;99.90
15916;DHT22;8057;47.830;-3.870;2023-05-29T15:57:45;21.00;99.90
15916;DHT22;8057;47.830;-3.870;2023-05-29T16:01:56;20.90;99.90
15916;DHT22;8057;47.830;-3.870;2023-05-29T16:06:06;20.80;99.90
15916;DHT22;8057;47.830;-3.870;2023-05-29T16:10:15;20.90;99.90
15916;DHT22;8057;47.830;-3.870;2023-05-29T16:14:25;20.90;99.90
15916;DHT22;8057;47.830;-3.870;2023-05-29T16:18:35;20.70;99.90
15916;DHT22;8057;47.830;-3.870;2023-05-29T16:22:46;20.80;99.90
15916;DHT22;8057;47.830;-3.870;2023-05-29T16:26:55;20.80;99.90
15916;DHT22;8057;47.830;-3.870;2023-05-29T16:31:04;20.90;99.90
15916;DHT22;8057;47.830;-3.870;2023-05-29T16:35:15;20.90;99.90
15916;DHT22;8057;47.830;-3.870;2023-05-29T16:39:24;20.90;99.90
15916;DHT22;8057;47.830;-3.870;2023-05-29T16:43:38;20.70;99.90
15916;DHT22;8057;47.830;-3.870;2023-05-29T16:47:47;20.70;99.90
15916;DHT22;8057;47.830;-3.870;2023-05-29T16:51:58;20.60;99.90
15916;DHT22;8057;47.830;-3.870;2023-05-29T16:56:07;20.70;99.90
15916;DHT22;8057;47.830;-3.870;2023-05-29T17:00:17;20.50;99.90
15916;DHT22;8057;47.830;-3.870;2023-05-29T17:04:26;20.70;99.90
15916;DHT22;8057;47.830;-3.870;2023-05-29T17:08:37;20.30;99.90
15916;DHT22;8057;47.830;-3.870;2023-05-29T17:12:46;20.20;99.90
15916;DHT22;8057;47.830;-3.870;2023-05-29T17:16:55;20.00;99.90
15916;DHT22;8057;47.830;-3.870;2023-05-29T17:21:04;19.90;99.90
15916;DHT22;8057;47.830;-3.870;2023-05-29T17:25:15;19.90;99.90
15916;DHT22;8057;47.830;-3.870;2023-05-29T17:29:24;19.80;99.90
15916;DHT22;8057;47.830;-3.870;2023-05-29T17:33:33;19.70;99.90
15916;DHT22;8057;47.830;-3.870;2023-05-29T17:37:42;19.60;99.90
15916;DHT22;8057;47.830;-3.870;2023-05-29T17:41:53;19.40;99.90
15916;DHT22;8057;47.830;-3.870;2023-05-29T17:46:02;19.30;99.90
15916;DHT22;8057;47.830;-3.870;2023-05-29T17:50:11;19.30;99.90
15916;DHT22;8057;47.830;-3.870;2023-05-29T17:54:20;19.20;99.90
15916;DHT22;8057;47.830;-3.870;2023-05-29T17:58:32;19.20;99.90
15916;DHT22;8057;47.830;-3.870;2023-05-29T18:02:41;18.90;99.90
15916;DHT22;8057;47.830;-3.870;2023-05-29T18:06:51;18.90;99.90
15916;DHT22;8057;47.830;-3.870;2023-05-29T18:11:00;18.70;99.90
15916;DHT22;8057;47.830;-3.870;2023-05-29T18:15:11;18.60;99.90
15916;DHT22;8057;47.830;-3.870;2023-05-29T18:19:21;18.60;99.90
15916;DHT22;8057;47.830;-3.870;2023-05-29T18:23:30;18.50;99.90
15916;DHT22;8057;47.830;-3.870;2023-05-29T18:27:40;18.40;99.90
15916;DHT22;8057;47.830;-3.870;2023-05-29T18:31:50;18.30;99.90
15916;DHT22;8057;47.830;-3.870;2023-05-29T18:36:00;18.10;99.90
15916;DHT22;8057;47.830;-3.870;2023-05-29T18:40:10;17.90;99.90
15916;DHT22;8057;47.830;-3.870;2023-05-29T18:44:19;17.80;99.90
15916;DHT22;8057;47.830;-3.870;2023-05-29T18:48:30;17.80;99.90
15916;DHT22;8057;47.830;-3.870;2023-05-29T18:52:39;17.70;99.90
15916;DHT22;8057;47.830;-3.870;2023-05-29T18:56:48;17.60;99.90
15916;DHT22;8057;47.830;-3.870;2023-05-29T19:00:57;17.50;99.90
15916;DHT22;8057;47.830;-3.870;2023-05-29T19:05:28;17.40;99.90
15916;DHT22;8057;47.830;-3.870;2023-05-29T19:09:37;17.30;99.90
15916;DHT22;8057;47.830;-3.870;2023-05-29T19:13:47;17.30;99.90
15916;DHT22;8057;47.830;-3.870;2023-05-29T19:17:57;17.10;99.90
15916;DHT22;8057;47.830;-3.870;2023-05-29T19:22:08;17.00;99.90
15916;DHT22;8057;47.830;-3.870;2023-05-29T19:26:17;16.80;99.90
15916;DHT22;8057;47.830;-3.870;2023-05-29T19:30:28;16.70;99.90
15916;DHT22;8057;47.830;-3.870;2023-05-29T19:34:37;16.50;99.90
15916;DHT22;8057;47.830;-3.870;2023-05-29T19:38:48;16.40;99.90
15916;DHT22;8057;47.830;-3.870;2023-05-29T19:42:58;16.20;99.90
15916;DHT22;8057;47.830;-3.870;2023-05-29T19:47:07;16.10;99.90
15916;DHT22;8057;47.830;-3.870;2023-05-29T19:51:16;16.00;99.90
15916;DHT22;8057;47.830;-3.870;2023-05-29T19:55:26;15.90;99.90
15916;DHT22;8057;47.830;-3.870;2023-05-29T19:59:36;15.80;99.90
15916;DHT22;8057;47.830;-3.870;2023-05-29T20:03:45;15.70;99.90
15916;DHT22;8057;47.830;-3.870;2023-05-29T20:07:54;15.50;99.90
15916;DHT22;8057;47.830;-3.870;2023-05-29T20:12:08;15.50;99.90
15916;DHT22;8057;47.830;-3.870;2023-05-29T20:16:17;15.30;99.90
15916;DHT22;8057;47.830;-3.870;2023-05-29T20:20:27;15.20;99.90
15916;DHT22;8057;47.830;-3.870;2023-05-29T20:25:01;15.10;99.90
15916;DHT22;8057;47.830;-3.870;2023-05-29T21:34:45;14.00;99.90
15916;DHT22;8057;47.830;-3.870;2023-05-29T21:38:54;14.00;99.90
15916;DHT22;8057;47.830;-3.870;2023-05-29T21:43:03;13.90;99.90
15916;DHT22;8057;47.830;-3.870;2023-05-29T21:47:13;13.90;99.90
15916;DHT22;8057;47.830;-3.870;2023-05-29T21:51:23;13.90;99.90
15916;DHT22;8057;47.830;-3.870;2023-05-29T21:55:33;13.90;99.90
15916;DHT22;8057;47.830;-3.870;2023-05-29T21:59:42;13.80;99.90
15916;DHT22;8057;47.830;-3.870;2023-05-29T22:03:51;13.80;99.90
15916;DHT22;8057;47.830;-3.870;2023-05-29T22:08:02;13.80;99.90
15916;DHT22;8057;47.830;-3.870;2023-05-29T22:12:11;13.70;99.90
15916;DHT22;8057;47.830;-3.870;2023-05-29T22:16:20;13.70;99.90
15916;DHT22;8057;47.830;-3.870;2023-05-29T22:20:29;13.70;99.90
15916;DHT22;8057;47.830;-3.870;2023-05-29T22:24:40;13.60;99.90
15916;DHT22;8057;47.830;-3.870;2023-05-29T22:28:52;13.60;99.90
15916;DHT22;8057;47.830;-3.870;2023-05-29T22:33:01;13.70;99.90
15916;DHT22;8057;47.830;-3.870;2023-05-29T22:37:10;13.70;99.90
15916;DHT22;8057;47.830;-3.870;2023-05-29T22:41:20;13.70;99.90
15916;DHT22;8057;47.830;-3.870;2023-05-29T22:45:30;13.60;99.90
15916;DHT22;8057;47.830;-3.870;2023-05-29T22:49:39;13.70;99.90
15916;DHT22;8057;47.830;-3.870;2023-05-29T22:53:48;13.60;99.90
15916;DHT22;8057;47.830;-3.870;2023-05-29T22:57:59;13.60;99.90
15916;DHT22;8057;47.830;-3.870;2023-05-29T23:02:08;13.70;99.90
15916;DHT22;8057;47.830;-3.870;2023-05-29T23:06:17;13.60;99.90
15916;DHT22;8057;47.830;-3.870;2023-05-29T23:10:27;13.60;99.90
15916;DHT22;8057;47.830;-3.870;2023-05-29T23:14:38;13.60;99.90
15916;DHT22;8057;47.830;-3.870;2023-05-29T23:18:47;13.60;99.90
15916;DHT22;8057;47.830;-3.870;2023-05-29T23:22:56;13.60;99.90
15916;DHT22;8057;47.830;-3.870;2023-05-29T23:27:05;13.60;99.90
15916;DHT22;8057;47.830;-3.870;2023-05-29T23:31:16;13.60;99.90
15916;DHT22;8057;47.830;-3.870;2023-05-29T23:35:25;13.60;99.90
15916;DHT22;8057;47.830;-3.870;2023-05-29T23:39:34;13.70;99.90
15916;DHT22;8057;47.830;-3.870;2023-05-29T23:43:43;13.60;99.90
15916;DHT22;8057;47.830;-3.870;2023-05-29T23:47:54;13.70;99.90
15916;DHT22;8057;47.830;-3.870;2023-05-29T23:52:03;13.70;99.90
15916;DHT22;8057;47.830;-3.870;2023-05-29T23:56:12;13.70;99.90
